Terminal Aerodrome Forecast
Issued by NWS

Home | Current Version | Previous Version | Graphics & Text | Print | Product List | Glossary On
Versions: 1 2 3 4 5 6 7 8 9 10 11 12 13 14 15
000
FTUS43 KGRB 182117 AAA
TAFCWA
TAF AMD
KCWA 182117Z 1821/1918 02010KT P6SM BKN028
     FM190200 01011G16KT P6SM SCT150
     FM190500 35008KT P6SM SKC=

USA.gov is the U.S. government's official web portal to all federal, state and local government web resources and services.